createdAt,value
2019-05-17T00:02:26.587Z,10.10
2019-05-17T00:04:56.337Z,10.00
2019-05-17T00:07:27.142Z,10.00
2019-05-17T00:09:57.093Z,10.00
2019-05-17T00:12:27.157Z,10.00
2019-05-17T00:14:56.318Z,9.90
2019-05-17T00:17:26.774Z,9.80
2019-05-17T00:19:56.820Z,9.90
2019-05-17T00:22:27.045Z,9.90
2019-05-17T00:24:56.823Z,9.80
2019-05-17T00:27:26.503Z,9.80
2019-05-17T00:29:57.094Z,9.90
2019-05-17T00:32:27.470Z,9.90
2019-05-17T00:35:17.552Z,9.90
2019-05-17T00:37:46.484Z,9.90
2019-05-17T00:40:16.575Z,9.90
2019-05-17T00:42:46.585Z,9.90
2019-05-17T00:45:17.501Z,9.80
2019-05-17T00:47:46.986Z,9.70
2019-05-17T00:50:17.010Z,9.50
2019-05-17T00:52:47.518Z,9.50
2019-05-17T00:55:36.268Z,9.50
2019-05-17T00:58:06.779Z,9.50
2019-05-17T01:00:57.119Z,9.30
2019-05-17T01:03:44.647Z,9.10
2019-05-17T01:06:13.324Z,9.10
2019-05-17T01:09:04.101Z,9.20
2019-05-17T01:11:31.567Z,9.20
2019-05-17T01:14:00.188Z,9.30
2019-05-17T01:16:28.805Z,9.30
2019-05-17T01:18:57.453Z,9.40
2019-05-17T01:21:26.376Z,9.40
2019-05-17T01:23:56.243Z,9.50
2019-05-17T01:26:26.747Z,9.50
2019-05-17T01:28:57.296Z,9.50
2019-05-17T01:31:26.586Z,9.50
2019-05-17T01:33:56.480Z,9.40
2019-05-17T01:36:26.352Z,9.50
2019-05-17T01:38:57.432Z,9.50
2019-05-17T01:41:26.670Z,9.60
2019-05-17T01:43:56.935Z,9.60
2019-05-17T01:46:26.516Z,9.70
2019-05-17T01:48:57.579Z,9.70
2019-05-17T01:51:26.346Z,9.70
2019-05-17T01:53:57.211Z,9.80
2019-05-17T01:56:26.261Z,9.80
2019-05-17T01:58:54.921Z,9.90
2019-05-17T02:01:27.404Z,9.80
2019-05-17T02:03:57.378Z,9.80
2019-05-17T02:06:27.125Z,10.00
2019-05-17T02:08:56.889Z,10.00
2019-05-17T02:11:26.952Z,9.90
2019-05-17T02:13:56.214Z,10.00
2019-05-17T02:16:26.741Z,10.00
2019-05-17T02:18:57.190Z,10.00
2019-05-17T02:21:27.438Z,10.10
2019-05-17T02:23:57.116Z,10.00
2019-05-17T02:26:26.674Z,9.90
2019-05-17T02:28:55.440Z,9.90
2019-05-17T02:31:24.855Z,9.80
2019-05-17T02:33:53.693Z,9.80
2019-05-17T02:36:22.905Z,9.80
2019-05-17T02:39:13.126Z,9.80
2019-05-17T02:41:43.058Z,9.80
2019-05-17T02:44:13.086Z,9.80
2019-05-17T02:46:43.286Z,9.70
2019-05-17T02:49:13.804Z,9.80
2019-05-17T02:52:03.217Z,9.50
2019-05-17T02:54:32.850Z,9.70
2019-05-17T02:57:03.218Z,9.70
2019-05-17T02:59:33.055Z,9.90
2019-05-17T03:02:03.442Z,9.80
2019-05-17T03:04:32.834Z,9.80
2019-05-17T03:07:03.855Z,9.60
2019-05-17T03:09:33.615Z,9.70
2019-05-17T03:12:23.663Z,9.70
2019-05-17T03:14:52.903Z,9.70
2019-05-17T03:17:22.956Z,9.60
2019-05-17T03:20:12.898Z,9.60
2019-05-17T03:22:43.897Z,9.70
2019-05-17T03:25:14.078Z,9.60
2019-05-17T03:27:43.363Z,9.70
2019-05-17T03:30:17.333Z,9.80
2019-05-17T03:32:47.236Z,9.70
2019-05-17T03:35:37.605Z,9.80
2019-05-17T03:38:04.825Z,9.70
2019-05-17T03:41:01.603Z,9.90
2019-05-17T03:43:04.026Z,9.80
2019-05-17T03:45:33.977Z,9.80
2019-05-17T03:48:04.709Z,9.90
2019-05-17T03:50:33.957Z,9.90
2019-05-17T03:53:02.919Z,9.90
2019-05-17T03:55:33.227Z,9.90
2019-05-17T03:58:03.485Z,10.00
2019-05-17T04:00:35.461Z,10.00
2019-05-17T04:03:03.233Z,10.00
2019-05-17T04:05:33.506Z,10.10
2019-05-17T04:08:03.673Z,10.10
2019-05-17T04:10:33.569Z,10.20
2019-05-17T04:13:04.233Z,10.00
2019-05-17T04:15:33.257Z,10.00
2019-05-17T04:18:04.225Z,10.00
2019-05-17T04:20:33.464Z,10.00
2019-05-17T04:23:04.000Z,10.00
2019-05-17T04:25:33.763Z,10.00
2019-05-17T04:28:03.160Z,9.90
2019-05-17T04:30:32.875Z,9.90
2019-05-17T04:33:03.351Z,10.00
2019-05-17T04:35:32.926Z,10.00
2019-05-17T04:38:23.640Z,10.10
2019-05-17T04:40:53.727Z,10.10
2019-05-17T04:43:23.259Z,10.20
2019-05-17T04:45:53.624Z,10.30
2019-05-17T04:48:23.231Z,10.30
2019-05-17T04:50:53.691Z,10.30
2019-05-17T04:53:23.498Z,10.30
2019-05-17T04:55:54.133Z,10.30
2019-05-17T04:58:23.254Z,10.30
2019-05-17T05:00:53.777Z,10.40
2019-05-17T05:03:23.272Z,10.40
2019-05-17T05:05:53.541Z,10.20
2019-05-17T05:08:22.517Z,10.10
2019-05-17T05:11:12.677Z,10.10
2019-05-17T05:13:42.578Z,10.20
2019-05-17T05:16:13.539Z,10.40
2019-05-17T05:18:42.068Z,10.60
2019-05-17T05:21:22.849Z,10.50
2019-05-17T05:23:51.787Z,10.50
2019-05-17T05:26:22.238Z,10.60
2019-05-17T05:29:12.637Z,10.80
2019-05-17T05:31:42.599Z,10.80
2019-05-17T05:34:12.313Z,10.70
2019-05-17T05:36:41.857Z,10.70
2019-05-17T05:39:11.673Z,10.70
2019-05-17T05:42:08.045Z,10.70
2019-05-17T05:47:11.478Z,10.90
2019-05-17T05:49:39.869Z,10.90
2019-05-17T05:52:08.545Z,10.90
2019-05-17T05:54:41.313Z,10.90
2019-05-17T05:57:12.613Z,11.00
2019-05-17T05:59:42.578Z,11.10
2019-05-17T06:02:13.146Z,11.20
2019-05-17T06:04:42.400Z,11.20
2019-05-17T06:07:12.972Z,11.40
2019-05-17T06:09:42.355Z,11.60
2019-05-17T06:12:22.969Z,11.60
2019-05-17T06:14:43.131Z,11.40
2019-05-17T06:17:12.610Z,11.50
2019-05-17T06:19:42.200Z,11.60
2019-05-17T06:22:32.883Z,11.60
2019-05-17T06:25:06.186Z,11.70
2019-05-17T06:27:36.772Z,11.80
2019-05-17T06:30:08.997Z,11.70
2019-05-17T06:32:42.683Z,11.60
2019-05-17T06:35:12.578Z,11.70
2019-05-17T06:37:42.516Z,11.80
2019-05-17T06:40:32.861Z,12.10
2019-05-17T06:43:04.191Z,11.90
2019-05-17T06:45:32.590Z,12.20
2019-05-17T06:48:02.557Z,12.20
2019-05-17T06:50:51.961Z,12.30
2019-05-17T06:53:21.930Z,12.30
2019-05-17T06:55:53.267Z,12.20
2019-05-17T06:58:22.234Z,12.60
2019-05-17T07:01:10.431Z,12.90
2019-05-17T07:03:39.987Z,13.20
2019-05-17T07:06:12.019Z,13.20
2019-05-17T07:09:00.959Z,12.90
2019-05-17T07:11:30.342Z,13.30
2019-05-17T07:14:20.062Z,13.50
2019-05-17T07:16:50.067Z,13.60
2019-05-17T07:19:19.753Z,13.90
2019-05-17T07:21:49.466Z,14.00
2019-05-17T07:24:19.592Z,13.90
2019-05-17T07:26:49.808Z,14.20
2019-05-17T07:29:19.390Z,14.40
2019-05-17T07:31:49.792Z,14.60
2019-05-17T07:34:19.969Z,14.70
2019-05-17T07:36:50.350Z,14.70
2019-05-17T07:39:20.494Z,14.80
2019-05-17T07:41:49.418Z,14.30
2019-05-17T07:44:20.395Z,14.00
2019-05-17T07:46:51.824Z,13.70
2019-05-17T07:49:20.031Z,13.70
2019-05-17T07:51:50.259Z,13.90
2019-05-17T07:54:19.740Z,14.00
2019-05-17T07:56:50.553Z,14.00
2019-05-17T07:59:19.971Z,14.10
2019-05-17T08:02:10.459Z,14.30
2019-05-17T08:04:40.692Z,14.70
2019-05-17T08:07:10.771Z,14.90
2019-05-17T08:10:00.209Z,15.30
2019-05-17T08:12:30.538Z,15.50
2019-05-17T08:14:59.996Z,15.50
2019-05-17T08:17:30.650Z,15.50
2019-05-17T08:20:01.835Z,15.30
2019-05-17T08:22:39.534Z,15.40
2019-05-17T08:25:11.876Z,15.40
2019-05-17T08:27:44.847Z,15.30
2019-05-17T08:30:26.379Z,15.30
2019-05-17T08:33:00.748Z,15.10
2019-05-17T08:35:30.322Z,15.20
2019-05-17T08:38:00.488Z,14.90
2019-05-17T08:40:32.956Z,14.90
2019-05-17T08:43:02.582Z,15.40
2019-05-17T08:45:32.707Z,15.70
2019-05-17T08:48:02.777Z,15.90
2019-05-17T08:50:31.550Z,15.90
2019-05-17T08:53:02.825Z,16.00
2019-05-17T08:55:31.589Z,16.20
2019-05-17T08:58:01.008Z,16.50
2019-05-17T09:00:31.419Z,16.70
2019-05-17T09:03:00.307Z,16.70
2019-05-17T09:05:30.279Z,16.40
2019-05-17T09:08:00.083Z,16.00
2019-05-17T09:10:50.456Z,16.00
2019-05-17T09:13:19.639Z,16.10
2019-05-17T09:15:49.472Z,16.30
2019-05-17T09:18:20.418Z,16.70
2019-05-17T09:20:49.486Z,16.60
2019-05-17T09:23:39.498Z,16.40
2019-05-17T09:26:11.197Z,16.40
2019-05-17T09:28:40.145Z,16.60
2019-05-17T09:31:10.579Z,16.70
2019-05-17T09:33:40.654Z,16.80
2019-05-17T09:36:30.304Z,16.90
2019-05-17T09:39:00.153Z,17.00
2019-05-17T09:41:29.693Z,16.80
2019-05-17T09:44:09.576Z,17.10
2019-05-17T09:46:30.303Z,17.10
2019-05-17T09:49:01.123Z,17.10
2019-05-17T09:51:30.304Z,17.20
2019-05-17T09:54:19.849Z,17.40
2019-05-17T09:56:49.722Z,17.50
2019-05-17T09:59:20.377Z,17.40
2019-05-17T10:01:49.477Z,17.00
2019-05-17T10:04:19.916Z,17.00
2019-05-17T10:06:48.544Z,16.80
2019-05-17T10:09:19.480Z,16.70
2019-05-17T10:11:49.236Z,16.90
2019-05-17T10:14:27.486Z,17.20
2019-05-17T10:16:48.217Z,17.30
2019-05-17T10:19:16.985Z,17.60
2019-05-17T10:22:04.950Z,17.40
2019-05-17T10:24:37.841Z,17.30
2019-05-17T10:27:03.906Z,17.40
2019-05-17T10:29:32.581Z,17.40
2019-05-17T10:32:01.219Z,17.40
2019-05-17T10:34:29.966Z,17.70
2019-05-17T10:36:58.657Z,17.90
2019-05-17T10:39:29.445Z,18.10
2019-05-17T10:42:00.241Z,18.40
2019-05-17T10:44:43.091Z,18.10
2019-05-17T10:46:59.329Z,18.20
2019-05-17T10:49:29.584Z,18.20
2019-05-17T10:51:59.945Z,18.10
2019-05-17T10:54:30.406Z,18.30
2019-05-17T10:56:59.692Z,18.40
2019-05-17T10:59:28.888Z,18.10
2019-05-17T11:01:59.460Z,18.10
2019-05-17T11:04:30.015Z,18.10
2019-05-17T11:06:59.575Z,17.90
2019-05-17T11:09:31.077Z,17.90
2019-05-17T11:12:00.685Z,18.30
2019-05-17T11:14:29.433Z,18.50
2019-05-17T11:16:58.134Z,18.50
2019-05-17T11:19:26.807Z,18.60
2019-05-17T11:21:55.605Z,18.90
2019-05-17T11:24:26.160Z,19.00
2019-05-17T11:26:54.791Z,18.50
2019-05-17T11:29:23.566Z,18.60
2019-05-17T11:31:52.128Z,18.80
2019-05-17T11:34:25.535Z,18.90
2019-05-17T11:36:52.539Z,18.80
2019-05-17T11:39:21.205Z,19.00
2019-05-17T11:41:49.839Z,18.90
2019-05-17T11:44:20.064Z,18.80
2019-05-17T11:46:48.617Z,18.70
2019-05-17T11:49:17.298Z,19.00
2019-05-17T11:52:05.255Z,18.80
2019-05-17T11:54:55.882Z,18.90
2019-05-17T11:57:24.515Z,18.50
2019-05-17T11:59:53.267Z,18.40
2019-05-17T12:02:21.893Z,18.50
2019-05-17T12:04:50.570Z,18.50
2019-05-17T12:07:19.267Z,18.70
2019-05-17T12:09:47.958Z,18.80
2019-05-17T12:12:16.656Z,18.70
2019-05-17T12:14:46.802Z,18.70
2019-05-17T12:17:15.357Z,18.60
2019-05-17T12:19:43.970Z,18.50
2019-05-17T12:22:12.667Z,18.40
2019-05-17T12:24:41.364Z,18.50
2019-05-17T12:27:11.510Z,18.90
2019-05-17T12:29:41.742Z,19.00
2019-05-17T12:32:16.595Z,19.40
2019-05-17T12:34:42.170Z,19.60
2019-05-17T12:37:10.734Z,19.40
2019-05-17T12:39:39.507Z,19.30
2019-05-17T12:42:08.474Z,19.30
2019-05-17T12:44:37.422Z,19.00
2019-05-17T12:47:25.506Z,18.90
2019-05-17T12:49:54.137Z,19.00
2019-05-17T12:52:22.765Z,18.90
2019-05-17T12:54:51.390Z,18.90
2019-05-17T12:57:20.086Z,18.80
2019-05-17T12:59:48.943Z,18.80
2019-05-17T13:02:17.508Z,18.60
2019-05-17T13:04:46.056Z,18.60
2019-05-17T13:07:14.725Z,18.60
2019-05-17T13:09:43.558Z,18.70
2019-05-17T13:12:12.236Z,18.50
2019-05-17T13:15:00.269Z,18.40
2019-05-17T13:17:28.889Z,18.10
2019-05-17T13:19:57.565Z,18.10
2019-05-17T13:22:26.128Z,18.30
2019-05-17T13:24:54.765Z,18.40
2019-05-17T13:27:23.377Z,18.50
2019-05-17T13:29:52.244Z,18.70
2019-05-17T13:32:20.930Z,18.90
2019-05-17T13:34:49.635Z,19.20
2019-05-17T13:37:19.186Z,19.60
2019-05-17T13:39:47.742Z,19.80
2019-05-17T13:42:16.345Z,19.80
2019-05-17T13:44:44.973Z,19.70
2019-05-17T13:47:16.017Z,19.30
2019-05-17T13:49:44.885Z,18.90
2019-05-17T13:52:13.472Z,18.80
2019-05-17T13:54:42.195Z,18.70
2019-05-17T13:57:11.434Z,18.70
2019-05-17T13:59:40.191Z,18.60
2019-05-17T14:02:28.207Z,18.50
2019-05-17T14:04:56.829Z,18.60
2019-05-17T14:07:25.576Z,18.80
2019-05-17T14:09:54.272Z,18.90
2019-05-17T14:12:23.054Z,18.90
2019-05-17T14:14:53.157Z,19.00
2019-05-17T14:17:21.907Z,19.20
2019-05-17T14:19:50.453Z,19.10
2019-05-17T14:22:19.137Z,18.90
2019-05-17T14:24:47.816Z,18.80
2019-05-17T14:27:16.496Z,18.60
2019-05-17T14:29:45.200Z,18.50
2019-05-17T14:32:14.628Z,18.40
2019-05-17T14:34:43.468Z,18.60
2019-05-17T14:37:12.154Z,18.90
2019-05-17T14:39:40.702Z,19.00
2019-05-17T14:42:09.454Z,19.20
2019-05-17T14:44:38.253Z,19.40
2019-05-17T14:47:07.101Z,19.50
2019-05-17T14:49:35.801Z,19.50
2019-05-17T14:52:04.754Z,19.50
2019-05-17T14:54:33.306Z,19.70
2019-05-17T14:57:02.082Z,19.80
2019-05-17T14:59:30.725Z,19.70
2019-05-17T15:02:18.840Z,19.70
2019-05-17T15:04:47.571Z,19.90
2019-05-17T15:07:16.253Z,19.70
2019-05-17T15:09:44.818Z,19.60
2019-05-17T15:12:27.126Z,19.70
2019-05-17T15:14:43.792Z,20.00
2019-05-17T15:17:24.744Z,19.80
2019-05-17T15:19:53.316Z,19.80
2019-05-17T15:22:22.049Z,19.50
2019-05-17T15:24:50.730Z,19.50
2019-05-17T15:27:19.313Z,19.40
2019-05-17T15:29:47.954Z,19.30
2019-05-17T15:32:16.701Z,19.30
2019-05-17T15:34:45.262Z,19.20
2019-05-17T15:37:13.868Z,19.10
2019-05-17T15:39:42.505Z,19.20
2019-05-17T15:42:11.349Z,19.20
2019-05-17T15:44:39.918Z,19.30
2019-05-17T15:47:08.683Z,19.50
2019-05-17T15:49:56.632Z,19.60
2019-05-17T15:52:25.312Z,19.90
2019-05-17T15:54:54.104Z,20.20
2019-05-17T15:57:22.870Z,20.20
2019-05-17T15:59:51.490Z,20.10
2019-05-17T16:02:20.245Z,19.80
2019-05-17T16:04:48.945Z,19.50
2019-05-17T16:07:17.783Z,19.30
2019-05-17T16:09:46.347Z,19.30
2019-05-17T16:12:15.020Z,19.10
2019-05-17T16:14:45.129Z,18.90
2019-05-17T16:17:13.806Z,18.80
2019-05-17T16:19:42.508Z,18.80
2019-05-17T16:22:11.268Z,18.80
2019-05-17T16:24:39.965Z,18.60
2019-05-17T16:27:08.714Z,18.60
2019-05-17T16:29:37.345Z,18.60
2019-05-17T16:32:06.019Z,18.80
2019-05-17T16:34:36.118Z,18.80
2019-05-17T16:37:04.989Z,18.80
2019-05-17T16:39:33.686Z,18.60
2019-05-17T16:42:02.425Z,18.80
2019-05-17T16:44:31.185Z,18.80
2019-05-17T16:46:59.888Z,18.90
2019-05-17T16:49:30.033Z,18.90
2019-05-17T16:51:58.664Z,18.90
2019-05-17T16:54:27.435Z,18.80
2019-05-17T16:56:56.153Z,18.80
2019-05-17T16:59:24.753Z,18.70
2019-05-17T17:01:53.452Z,18.70
2019-05-17T17:04:22.201Z,18.60
2019-05-17T17:06:50.838Z,18.50
2019-05-17T17:09:19.593Z,18.50
2019-05-17T17:11:48.293Z,18.50
2019-05-17T17:14:16.970Z,18.50
2019-05-17T17:16:45.673Z,18.50
2019-05-17T17:19:14.515Z,18.70
2019-05-17T17:21:43.238Z,18.80
2019-05-17T17:24:11.981Z,18.80
2019-05-17T17:26:40.694Z,18.70
2019-05-17T17:29:09.425Z,18.60
2019-05-17T17:31:38.053Z,18.70
2019-05-17T17:34:06.748Z,18.60
2019-05-17T17:36:35.499Z,18.60
2019-05-17T17:39:05.864Z,18.50
2019-05-17T17:41:34.619Z,18.40
2019-05-17T17:44:03.619Z,18.20
2019-05-17T17:46:32.362Z,18.00
2019-05-17T17:49:00.920Z,18.00
2019-05-17T17:51:29.639Z,18.00
2019-05-17T17:53:58.265Z,17.90
2019-05-17T17:56:26.975Z,17.90
2019-05-17T17:58:55.646Z,17.90
2019-05-17T18:01:24.389Z,17.90
2019-05-17T18:03:53.084Z,17.90
2019-05-17T18:06:21.764Z,17.90
2019-05-17T18:08:50.393Z,17.90
2019-05-17T18:11:19.072Z,18.00
2019-05-17T18:13:47.627Z,18.00
2019-05-17T18:16:16.381Z,17.90
2019-05-17T18:18:45.080Z,17.90
2019-05-17T18:21:13.757Z,17.90
2019-05-17T18:23:42.389Z,18.00
2019-05-17T18:26:10.993Z,17.90
2019-05-17T18:28:39.631Z,17.80
2019-05-17T18:31:08.481Z,17.80
2019-05-17T18:33:37.045Z,17.80
2019-05-17T18:36:05.795Z,17.70
2019-05-17T18:38:35.498Z,17.70
2019-05-17T18:41:23.517Z,17.70
2019-05-17T18:44:11.484Z,17.60
2019-05-17T18:46:40.258Z,17.60
2019-05-17T18:49:08.928Z,17.60
2019-05-17T18:51:37.536Z,17.40
2019-05-17T18:54:07.533Z,17.50
2019-05-17T18:56:36.305Z,17.50
2019-05-17T18:59:04.846Z,17.30
2019-05-17T19:01:33.597Z,16.90
2019-05-17T19:04:02.342Z,16.40
2019-05-17T19:06:31.017Z,16.10
2019-05-17T19:08:59.646Z,16.00
2019-05-17T19:11:29.793Z,15.80
2019-05-17T19:13:58.421Z,15.80
2019-05-17T19:16:27.189Z,15.60
2019-05-17T19:18:55.877Z,15.70
2019-05-17T19:21:24.564Z,15.60
2019-05-17T19:23:53.260Z,15.60
2019-05-17T19:26:21.942Z,15.50
2019-05-17T19:28:50.576Z,15.50
2019-05-17T19:31:19.266Z,15.40
2019-05-17T19:33:47.824Z,15.30
2019-05-17T19:36:16.604Z,15.30
2019-05-17T19:38:45.168Z,15.30
2019-05-17T19:41:13.844Z,15.20
2019-05-17T19:43:42.409Z,15.30
2019-05-17T19:46:11.156Z,15.30
2019-05-17T19:48:39.849Z,15.30
2019-05-17T19:51:08.463Z,15.30
2019-05-17T19:53:37.090Z,15.10
2019-05-17T19:56:05.837Z,15.10
2019-05-17T19:58:34.473Z,15.10
2019-05-17T20:01:03.077Z,15.00
2019-05-17T20:03:31.776Z,15.10
2019-05-17T20:06:00.458Z,14.80
2019-05-17T20:08:30.625Z,14.80
2019-05-17T20:10:59.310Z,14.60
2019-05-17T20:13:27.937Z,14.60
2019-05-17T20:15:56.644Z,14.50
2019-05-17T20:18:25.323Z,14.40
2019-05-17T20:20:53.958Z,14.40
2019-05-17T20:23:22.559Z,14.40
2019-05-17T20:25:51.194Z,14.30
2019-05-17T20:28:39.214Z,14.30
2019-05-17T20:31:07.889Z,14.40
2019-05-17T20:33:36.524Z,14.20
2019-05-17T20:36:24.553Z,14.20
2019-05-17T20:38:53.109Z,14.10
2019-05-17T20:41:21.856Z,14.00
2019-05-17T20:43:50.491Z,14.10
2019-05-17T20:46:19.161Z,14.00
2019-05-17T20:48:47.724Z,13.90
2019-05-17T20:51:16.397Z,14.00
2019-05-17T20:53:45.097Z,14.10
2019-05-17T20:56:13.800Z,14.10
2019-05-17T20:58:42.576Z,13.90
2019-05-17T21:01:30.663Z,13.90
2019-05-17T21:03:59.225Z,13.80
2019-05-17T21:06:27.900Z,13.70
2019-05-17T21:08:56.529Z,13.70
2019-05-17T21:11:25.229Z,13.70
2019-05-17T21:14:13.196Z,13.70
2019-05-17T21:16:41.795Z,13.70
2019-05-17T21:19:10.497Z,13.60
2019-05-17T21:21:39.105Z,13.50
2019-05-17T21:24:07.732Z,13.40
2019-05-17T21:26:36.653Z,13.30
2019-05-17T21:29:06.869Z,13.40
2019-05-17T21:31:35.571Z,13.40
2019-05-17T21:34:04.332Z,13.40
2019-05-17T21:36:32.959Z,13.30
2019-05-17T21:39:04.068Z,13.40
2019-05-17T21:41:32.703Z,13.30
2019-05-17T21:44:01.306Z,13.30
2019-05-17T21:46:30.008Z,13.20
2019-05-17T21:48:58.849Z,13.10
2019-05-17T21:51:27.545Z,13.10
2019-05-17T21:53:56.149Z,13.20
2019-05-17T21:56:26.236Z,13.10
2019-05-17T21:59:14.248Z,13.00
2019-05-17T22:01:42.949Z,12.90
2019-05-17T22:04:11.617Z,12.80
2019-05-17T22:06:40.261Z,12.80
2019-05-17T22:09:08.996Z,12.70
2019-05-17T22:11:39.396Z,12.60
2019-05-17T22:14:08.049Z,12.60
2019-05-17T22:16:36.615Z,12.60
2019-05-17T22:19:05.557Z,12.50
2019-05-17T22:21:53.525Z,12.40
2019-05-17T22:24:22.198Z,12.40
2019-05-17T22:26:50.833Z,12.50
2019-05-17T22:29:19.576Z,12.40
2019-05-17T22:31:48.209Z,12.40
2019-05-17T22:34:16.960Z,12.40
2019-05-17T22:36:45.761Z,12.40
2019-05-17T22:39:14.452Z,12.30
2019-05-17T22:41:44.556Z,12.30
2019-05-17T22:44:32.570Z,12.30
2019-05-17T22:47:20.609Z,12.30
2019-05-17T22:49:49.223Z,12.50
2019-05-17T22:52:17.846Z,12.50
2019-05-17T22:54:46.523Z,12.50
2019-05-17T22:57:15.146Z,12.50
2019-05-17T22:59:43.864Z,12.50
2019-05-17T23:02:12.499Z,12.50
2019-05-17T23:04:41.241Z,12.40
2019-05-17T23:07:09.945Z,12.50
2019-05-17T23:09:38.790Z,12.30
2019-05-17T23:12:07.416Z,12.30
2019-05-17T23:14:36.095Z,12.30
2019-05-17T23:17:04.733Z,12.20
2019-05-17T23:19:45.929Z,12.10
2019-05-17T23:22:14.564Z,12.10
2019-05-17T23:24:43.295Z,12.10
2019-05-17T23:27:11.934Z,12.20
2019-05-17T23:29:41.289Z,12.00
2019-05-17T23:32:10.087Z,11.90
2019-05-17T23:34:38.855Z,11.90
2019-05-17T23:37:09.033Z,11.80
2019-05-17T23:39:37.788Z,11.90
2019-05-17T23:42:06.428Z,11.80
2019-05-17T23:44:35.172Z,11.90
2019-05-17T23:47:07.116Z,11.90
2019-05-17T23:49:35.773Z,12.00
2019-05-17T23:52:04.402Z,11.90
2019-05-17T23:54:34.612Z,12.00
2019-05-17T23:57:22.585Z,12.00
2019-05-17T23:59:51.273Z,12.00
